createdAt,value
2023-07-05T00:01:32.261Z,1.70
2023-07-05T00:04:00.072Z,1.70
2023-07-05T00:06:27.570Z,1.65
2023-07-05T00:08:54.971Z,1.77
2023-07-05T00:11:22.517Z,1.50
2023-07-05T00:13:50.577Z,1.20
2023-07-05T00:16:18.249Z,2.65
2023-07-05T00:18:46.283Z,2.40
2023-07-05T00:21:13.678Z,1.80
2023-07-05T00:23:42.893Z,1.50
2023-07-05T00:26:10.408Z,1.40
2023-07-05T00:28:37.836Z,1.60
2023-07-05T00:31:06.058Z,1.40
2023-07-05T00:33:33.691Z,1.20
2023-07-05T00:36:01.169Z,1.38
2023-07-05T00:38:28.896Z,1.10
2023-07-05T00:40:56.720Z,1.60
2023-07-05T00:43:24.171Z,1.65
2023-07-05T00:45:59.777Z,2.42
2023-07-05T00:48:36.733Z,1.75
2023-07-05T00:51:07.572Z,1.80
2023-07-05T00:53:37.687Z,1.77
2023-07-05T00:56:11.934Z,3.00
2023-07-05T00:58:41.329Z,1.40
2023-07-05T01:01:08.818Z,1.92
2023-07-05T01:03:37.139Z,1.83
2023-07-05T01:06:07.502Z,1.70
2023-07-05T01:08:34.858Z,1.92
2023-07-05T01:11:24.712Z,1.85
2023-07-05T01:13:58.386Z,2.53
2023-07-05T01:16:32.070Z,1.67
2023-07-05T01:19:19.528Z,2.33
2023-07-05T01:21:54.029Z,1.70
2023-07-05T01:24:24.308Z,1.50
2023-07-05T01:27:24.593Z,1.20
2023-07-05T01:30:07.929Z,1.60
2023-07-05T01:32:56.906Z,1.60
2023-07-05T01:35:29.589Z,2.72
2023-07-05T01:37:57.049Z,1.52
2023-07-05T01:40:27.490Z,1.65
2023-07-05T01:43:01.957Z,1.98
2023-07-05T01:45:39.510Z,2.40
2023-07-05T01:48:27.221Z,1.63
2023-07-05T01:51:05.070Z,1.70
2023-07-05T01:53:39.113Z,1.95
2023-07-05T01:56:09.172Z,2.03
2023-07-05T01:58:39.890Z,1.70
2023-07-05T02:01:08.287Z,2.00
2023-07-05T02:03:37.826Z,1.58
2023-07-05T02:06:06.478Z,1.52
2023-07-05T02:08:37.578Z,1.75
2023-07-05T02:11:05.027Z,1.80
2023-07-05T02:13:33.063Z,2.03
2023-07-05T02:16:00.726Z,1.75
2023-07-05T02:18:30.529Z,2.63
2023-07-05T02:20:58.394Z,1.70
2023-07-05T02:23:25.994Z,1.90
2023-07-05T02:25:53.997Z,1.70
2023-07-05T02:28:21.545Z,1.67
2023-07-05T02:30:49.030Z,1.90
2023-07-05T02:33:16.368Z,1.83
2023-07-05T02:35:43.921Z,1.98
2023-07-05T02:38:11.247Z,1.67
2023-07-05T02:40:38.630Z,1.50
2023-07-05T02:43:06.027Z,1.27
2023-07-05T02:45:33.738Z,1.63
2023-07-05T02:48:01.234Z,1.63
2023-07-05T02:50:28.700Z,1.75
2023-07-05T02:52:56.057Z,1.80
2023-07-05T02:55:23.702Z,1.58
2023-07-05T02:57:51.102Z,1.40
2023-07-05T03:00:21.242Z,1.67
2023-07-05T03:02:48.703Z,1.50
2023-07-05T03:05:16.214Z,1.65
2023-07-05T03:07:43.714Z,1.50
2023-07-05T03:10:11.296Z,1.20
2023-07-05T03:12:38.695Z,1.77
2023-07-05T03:15:06.426Z,1.38
2023-07-05T03:17:34.588Z,1.40
2023-07-05T03:20:02.177Z,1.77
2023-07-05T03:22:30.389Z,1.73
2023-07-05T03:24:58.099Z,1.83
2023-07-05T03:27:32.370Z,1.85
2023-07-05T03:30:00.311Z,1.90
2023-07-05T03:32:30.778Z,2.33
2023-07-05T03:35:01.395Z,2.25
2023-07-05T03:37:30.246Z,2.00
2023-07-05T03:39:57.623Z,2.22
2023-07-05T03:42:25.194Z,2.00
2023-07-05T03:44:52.604Z,2.33
2023-07-05T03:47:20.074Z,2.92
2023-07-05T03:49:47.428Z,3.50
2023-07-05T03:52:15.772Z,3.33
2023-07-05T03:54:43.130Z,4.28
2023-07-05T03:57:10.602Z,3.72
2023-07-05T03:59:38.028Z,4.03
2023-07-05T04:02:05.479Z,5.65
2023-07-05T04:04:33.173Z,6.38
2023-07-05T04:07:00.854Z,6.78
2023-07-05T04:09:28.232Z,5.05
2023-07-05T04:11:55.720Z,4.63
2023-07-05T04:14:23.074Z,6.40
2023-07-05T04:16:50.514Z,5.95
2023-07-05T04:19:18.306Z,6.72
2023-07-05T04:21:45.739Z,7.18
2023-07-05T04:24:13.059Z,5.07
2023-07-05T04:26:40.577Z,4.78
2023-07-05T04:29:08.052Z,4.97
2023-07-05T04:31:35.478Z,6.57
2023-07-05T04:34:03.241Z,9.05
2023-07-05T04:36:30.852Z,9.25
2023-07-05T04:38:59.047Z,8.93
2023-07-05T04:41:26.807Z,5.88
2023-07-05T04:43:54.221Z,7.00
2023-07-05T04:46:22.572Z,3.55
2023-07-05T04:48:50.458Z,4.70
2023-07-05T04:51:17.954Z,5.40
2023-07-05T04:53:45.361Z,3.35
2023-07-05T04:56:14.070Z,2.60
2023-07-05T04:58:41.594Z,2.60
2023-07-05T05:01:09.396Z,3.53
2023-07-05T05:03:36.997Z,3.28
2023-07-05T05:06:04.485Z,5.50
2023-07-05T05:08:32.276Z,2.63
2023-07-05T05:11:01.287Z,1.90
2023-07-05T05:13:30.083Z,2.38
2023-07-05T05:15:57.741Z,2.65
2023-07-05T05:18:25.742Z,2.83
2023-07-05T05:20:53.508Z,2.22
2023-07-05T05:23:21.136Z,2.05
2023-07-05T05:25:50.200Z,2.00
2023-07-05T05:28:18.038Z,2.00
2023-07-05T05:30:45.859Z,1.98
2023-07-05T05:33:14.286Z,1.98
2023-07-05T05:35:46.842Z,2.30
2023-07-05T05:38:14.609Z,3.22
2023-07-05T05:40:42.031Z,2.60
2023-07-05T05:43:09.703Z,2.38
2023-07-05T05:45:37.097Z,2.47
2023-07-05T05:48:04.597Z,2.75
2023-07-05T05:50:32.160Z,2.50
2023-07-05T05:52:59.864Z,2.53
2023-07-05T05:55:27.248Z,2.70
2023-07-05T05:57:54.593Z,2.40
2023-07-05T06:00:21.989Z,2.10
2023-07-05T06:02:50.898Z,2.10
2023-07-05T06:05:18.364Z,2.08
2023-07-05T06:07:46.069Z,1.90
2023-07-05T06:10:13.628Z,3.28
2023-07-05T06:12:44.822Z,2.05
2023-07-05T06:15:13.456Z,2.47
2023-07-05T06:17:41.142Z,2.53
2023-07-05T06:20:12.334Z,2.30
2023-07-05T06:22:40.821Z,2.50
2023-07-05T06:25:08.466Z,2.40
2023-07-05T06:27:35.994Z,2.08
2023-07-05T06:30:03.916Z,1.95
2023-07-05T06:32:33.678Z,2.00
2023-07-05T06:35:04.546Z,2.10
2023-07-05T06:37:43.255Z,1.85
2023-07-05T06:40:15.420Z,1.80
2023-07-05T06:42:49.117Z,1.95
2023-07-05T06:45:22.717Z,2.10
2023-07-05T06:47:54.900Z,2.35
2023-07-05T06:50:28.926Z,1.85
2023-07-05T06:53:42.187Z,2.40
2023-07-05T06:56:26.376Z,2.58
2023-07-05T06:58:57.126Z,2.10
2023-07-05T07:01:35.328Z,1.88
2023-07-05T07:04:21.660Z,3.08
2023-07-05T07:06:55.351Z,2.17
2023-07-05T07:09:33.033Z,2.50
2023-07-05T07:12:10.674Z,2.67
2023-07-05T07:14:46.910Z,1.70
2023-07-05T07:17:47.472Z,2.15
2023-07-05T07:20:27.449Z,1.67
2023-07-05T07:23:35.520Z,2.00
2023-07-05T07:26:18.520Z,1.55
2023-07-05T07:28:56.259Z,1.98
2023-07-05T07:31:32.138Z,1.60
2023-07-05T07:34:24.362Z,1.70
2023-07-05T07:37:14.568Z,1.38
2023-07-05T07:39:58.031Z,1.10
2023-07-05T07:42:30.645Z,2.85
2023-07-05T07:45:09.812Z,2.40
2023-07-05T07:47:44.544Z,1.63
2023-07-05T07:50:14.861Z,1.30
2023-07-05T07:52:48.968Z,1.17
2023-07-05T07:55:34.171Z,2.50
2023-07-05T07:58:33.938Z,2.05
2023-07-05T08:01:28.426Z,3.03
2023-07-05T08:04:07.358Z,2.30
2023-07-05T08:06:45.487Z,1.42
2023-07-05T08:09:25.730Z,1.05
2023-07-05T08:11:56.841Z,1.40
2023-07-05T08:14:36.221Z,1.50
2023-07-05T08:17:09.078Z,1.58
2023-07-05T08:19:45.272Z,1.25
2023-07-05T08:22:18.349Z,1.75
2023-07-05T08:24:51.960Z,2.85
2023-07-05T08:27:23.769Z,2.45
2023-07-05T08:29:52.075Z,1.00
2023-07-05T08:32:20.632Z,1.60
2023-07-05T08:34:48.132Z,1.20
2023-07-05T08:37:15.432Z,0.95
2023-07-05T08:39:54.284Z,1.13
2023-07-05T08:42:34.698Z,1.23
2023-07-05T08:45:09.515Z,1.20
2023-07-05T08:47:48.588Z,1.15
2023-07-05T08:50:35.757Z,1.30
2023-07-05T08:53:13.133Z,0.90
2023-07-05T08:55:48.578Z,1.00
2023-07-05T08:58:19.091Z,1.25
2023-07-05T09:01:06.809Z,1.50
2023-07-05T09:03:34.362Z,1.08
2023-07-05T09:06:10.514Z,0.75
2023-07-05T09:08:45.303Z,0.60
2023-07-05T09:11:15.017Z,0.60
2023-07-05T09:13:43.592Z,0.82
2023-07-05T09:16:13.829Z,0.80
2023-07-05T09:18:49.268Z,1.00
2023-07-05T09:21:19.663Z,2.25
2023-07-05T09:23:50.653Z,0.83
2023-07-05T09:26:38.281Z,1.05
2023-07-05T09:29:08.470Z,0.88
2023-07-05T09:31:39.844Z,0.98
2023-07-05T09:34:15.664Z,2.05
2023-07-05T09:36:43.597Z,0.80
2023-07-05T09:39:22.287Z,3.08
2023-07-05T09:41:51.900Z,0.63
2023-07-05T09:44:20.475Z,0.70
2023-07-05T09:46:48.128Z,1.20
2023-07-05T09:49:16.880Z,0.82
2023-07-05T09:51:45.518Z,1.80
2023-07-05T09:54:16.255Z,0.80
2023-07-05T09:56:59.935Z,3.00
2023-07-05T09:59:27.442Z,0.98
2023-07-05T10:02:02.242Z,3.55
2023-07-05T10:04:30.806Z,1.65
2023-07-05T10:07:04.189Z,0.98
2023-07-05T10:09:31.966Z,0.80
2023-07-05T10:12:11.173Z,0.80
2023-07-05T10:14:39.574Z,0.60
2023-07-05T10:17:09.204Z,0.80
2023-07-05T10:19:40.637Z,1.35
2023-07-05T10:24:44.425Z,1.25
2023-07-05T10:27:22.876Z,0.60
2023-07-05T10:29:51.092Z,1.42
2023-07-05T10:32:19.853Z,0.98
2023-07-05T10:34:51.363Z,0.60
2023-07-05T10:37:28.330Z,0.95
2023-07-05T10:39:55.805Z,1.33
2023-07-05T10:42:23.261Z,0.95
2023-07-05T10:44:50.741Z,1.17
2023-07-05T10:47:19.171Z,1.33
2023-07-05T10:49:48.924Z,0.90
2023-07-05T10:52:17.022Z,1.55
2023-07-05T10:54:44.307Z,0.80
2023-07-05T10:57:21.952Z,0.60
2023-07-05T10:59:53.824Z,0.70
2023-07-05T11:02:50.612Z,1.50
2023-07-05T11:05:20.154Z,0.70
2023-07-05T11:07:48.021Z,0.70
2023-07-05T11:10:16.232Z,0.70
2023-07-05T11:12:49.730Z,0.80
2023-07-05T11:15:22.564Z,1.77
2023-07-05T11:17:52.890Z,0.80
2023-07-05T11:20:32.053Z,0.65
2023-07-05T11:23:01.720Z,0.70
2023-07-05T11:25:47.889Z,0.80
2023-07-05T11:28:34.256Z,1.55
2023-07-05T11:31:02.326Z,0.88
2023-07-05T11:33:31.984Z,0.90
2023-07-05T11:36:02.697Z,0.80
2023-07-05T11:38:42.055Z,1.05
2023-07-05T11:41:10.294Z,0.70
2023-07-05T11:43:56.201Z,0.70
2023-07-05T11:46:36.700Z,1.00
2023-07-05T11:49:25.336Z,0.90
2023-07-05T11:52:00.536Z,1.17
2023-07-05T11:54:32.243Z,0.80
2023-07-05T11:57:01.984Z,0.77
2023-07-05T11:59:31.731Z,0.65
2023-07-05T12:01:59.424Z,0.93
2023-07-05T12:04:27.386Z,0.85
2023-07-05T12:06:54.745Z,0.75
2023-07-05T12:09:26.495Z,1.40
2023-07-05T12:11:57.556Z,1.10
2023-07-05T12:14:25.152Z,0.93
2023-07-05T12:16:53.700Z,0.80
2023-07-05T12:19:31.882Z,1.50
2023-07-05T12:22:01.578Z,0.93
2023-07-05T12:24:28.866Z,0.90
2023-07-05T12:26:57.684Z,1.50
2023-07-05T12:29:26.235Z,0.85
2023-07-05T12:32:04.378Z,1.20
2023-07-05T12:34:31.840Z,0.93
2023-07-05T12:37:00.061Z,3.50
2023-07-05T12:39:27.686Z,0.93
2023-07-05T12:42:09.987Z,1.05
2023-07-05T12:44:40.196Z,0.90
2023-07-05T12:47:20.805Z,0.80
2023-07-05T12:50:03.166Z,1.00
2023-07-05T12:58:23.768Z,3.13
2023-07-05T13:00:52.683Z,2.55
2023-07-05T13:03:20.686Z,2.55
2023-07-05T13:05:48.638Z,1.60
2023-07-05T13:08:16.039Z,1.98
2023-07-05T13:10:47.784Z,2.00
2023-07-05T13:13:35.253Z,3.50
2023-07-05T13:16:22.380Z,1.25
2023-07-05T13:18:57.962Z,1.20
2023-07-05T13:21:25.473Z,1.20
2023-07-05T13:23:53.300Z,3.35
2023-07-05T13:26:28.152Z,1.23
2023-07-05T13:28:55.804Z,1.48
2023-07-05T13:31:24.276Z,1.30
2023-07-05T13:33:55.592Z,2.38
2023-07-05T13:36:22.947Z,2.85
2023-07-05T13:38:58.772Z,2.58
2023-07-05T13:41:31.559Z,1.73
2023-07-05T13:43:59.331Z,2.25
2023-07-05T13:46:28.970Z,1.73
2023-07-05T13:49:02.539Z,1.73
2023-07-05T13:51:31.622Z,3.80
2023-07-05T13:53:59.293Z,1.60
2023-07-05T13:56:27.304Z,1.65
2023-07-05T13:58:55.122Z,1.90
2023-07-05T14:01:22.744Z,1.40
2023-07-05T14:06:24.597Z,1.67
2023-07-05T14:08:52.102Z,1.33
2023-07-05T14:11:23.564Z,1.40
2023-07-05T14:13:51.307Z,1.65
2023-07-05T14:16:20.573Z,1.40
2023-07-05T14:18:49.403Z,1.38
2023-07-05T14:21:37.099Z,1.30
2023-07-05T14:24:06.051Z,1.10
2023-07-05T14:26:34.141Z,1.20
2023-07-05T14:29:01.504Z,4.20
2023-07-05T14:31:28.954Z,1.98
2023-07-05T14:33:56.768Z,1.55
2023-07-05T14:36:24.285Z,1.10
2023-07-05T14:38:51.699Z,1.33
2023-07-05T14:41:24.843Z,1.50
2023-07-05T14:43:52.801Z,1.58
2023-07-05T14:46:21.526Z,2.05
2023-07-05T14:48:49.577Z,1.45
2023-07-05T14:51:18.697Z,1.67
2023-07-05T14:53:47.072Z,1.70
2023-07-05T14:56:14.489Z,2.30
2023-07-05T14:58:41.889Z,1.30
2023-07-05T15:01:12.228Z,2.85
2023-07-05T15:03:41.585Z,1.42
2023-07-05T15:06:08.878Z,1.50
2023-07-05T15:08:36.387Z,1.95
2023-07-05T15:11:03.746Z,1.40
2023-07-05T15:13:32.141Z,1.50
2023-07-05T15:15:59.759Z,1.55
2023-07-05T15:18:27.140Z,1.40
2023-07-05T15:20:54.966Z,1.50
2023-07-05T15:23:22.547Z,1.48
2023-07-05T15:25:49.898Z,1.63
2023-07-05T15:28:17.277Z,1.70
2023-07-05T15:30:44.657Z,1.98
2023-07-05T15:33:12.140Z,3.40
2023-07-05T15:35:41.286Z,2.00
2023-07-05T15:38:08.818Z,1.67
2023-07-05T15:40:36.478Z,2.13
2023-07-05T15:43:04.145Z,2.20
2023-07-05T15:45:31.894Z,1.85
2023-07-05T15:47:59.514Z,1.85
2023-07-05T15:50:29.557Z,2.05
2023-07-05T15:52:57.447Z,2.30
2023-07-05T15:55:25.732Z,1.95
2023-07-05T15:57:53.234Z,2.30
2023-07-05T16:00:28.729Z,2.38
2023-07-05T16:03:00.864Z,2.40
2023-07-05T16:05:33.252Z,2.15
2023-07-05T16:08:02.323Z,2.20
2023-07-05T16:10:30.741Z,2.30
2023-07-05T16:13:00.350Z,1.85
2023-07-05T16:15:28.253Z,2.17
2023-07-05T16:17:55.699Z,1.75
2023-07-05T16:20:23.273Z,2.38
2023-07-05T16:22:50.902Z,1.98
2023-07-05T16:25:20.756Z,3.13
2023-07-05T16:27:48.170Z,2.22
2023-07-05T16:30:16.005Z,3.92
2023-07-05T16:32:43.986Z,2.45
2023-07-05T16:35:11.617Z,2.55
2023-07-05T16:37:39.065Z,2.65
2023-07-05T16:40:07.741Z,2.40
2023-07-05T16:42:36.918Z,2.45
2023-07-05T16:45:04.599Z,2.60
2023-07-05T16:47:32.483Z,2.35
2023-07-05T16:50:07.830Z,2.22
2023-07-05T16:52:35.612Z,2.35
2023-07-05T16:55:06.496Z,2.20
2023-07-05T16:57:42.514Z,2.50
2023-07-05T17:00:13.952Z,3.00
2023-07-05T17:05:18.709Z,1.98
2023-07-05T17:07:47.814Z,2.10
2023-07-05T17:10:17.706Z,2.45
2023-07-05T17:13:13.654Z,2.53
2023-07-05T17:18:09.249Z,1.75
2023-07-05T17:20:40.352Z,2.53
2023-07-05T17:23:17.120Z,1.98
2023-07-05T17:25:44.606Z,2.33
2023-07-05T17:28:18.167Z,2.00
2023-07-05T17:30:48.037Z,2.17
2023-07-05T17:33:17.926Z,1.77
2023-07-05T17:35:46.569Z,1.60
2023-07-05T17:38:14.880Z,1.65
2023-07-05T17:40:46.952Z,1.55
2023-07-05T17:45:41.906Z,1.98
2023-07-05T17:48:18.437Z,2.10
2023-07-05T17:50:46.182Z,2.05
2023-07-05T17:53:13.590Z,2.30
2023-07-05T17:55:52.701Z,2.10
2023-07-05T17:58:20.209Z,2.20
2023-07-05T18:00:48.687Z,2.20
2023-07-05T18:03:20.836Z,1.73
2023-07-05T18:05:48.421Z,2.38
2023-07-05T18:08:15.814Z,3.67
2023-07-05T18:10:43.244Z,2.10
2023-07-05T18:13:10.527Z,1.85
2023-07-05T18:15:38.030Z,1.67
2023-07-05T18:18:08.766Z,1.63
2023-07-05T18:20:36.253Z,1.15
2023-07-05T18:23:03.680Z,1.80
2023-07-05T18:25:31.051Z,1.27
2023-07-05T18:27:58.530Z,1.80
2023-07-05T18:30:26.077Z,1.35
2023-07-05T18:32:53.941Z,1.25
2023-07-05T18:35:21.664Z,1.58
2023-07-05T18:37:49.354Z,1.15
2023-07-05T18:40:23.118Z,1.60
2023-07-05T18:42:50.681Z,1.30
2023-07-05T18:45:18.465Z,1.30
2023-07-05T18:47:48.833Z,1.30
2023-07-05T18:50:16.439Z,1.20
2023-07-05T18:52:43.737Z,1.30
2023-07-05T18:55:11.382Z,1.23
2023-07-05T18:57:39.060Z,1.02
2023-07-05T19:00:09.802Z,1.92
2023-07-05T19:02:42.988Z,1.40
2023-07-05T19:05:13.120Z,1.20
2023-07-05T19:07:44.005Z,1.00
2023-07-05T19:10:12.182Z,2.35
2023-07-05T19:12:39.910Z,1.17
2023-07-05T19:15:08.237Z,1.00
2023-07-05T19:17:37.508Z,1.30
2023-07-05T19:20:05.957Z,1.30
2023-07-05T19:22:36.389Z,1.70
2023-07-05T19:25:04.860Z,1.20
2023-07-05T19:27:35.817Z,1.42
2023-07-05T19:30:03.968Z,1.38
2023-07-05T19:32:32.345Z,2.05
2023-07-05T19:35:02.179Z,1.90
2023-07-05T19:37:30.474Z,1.20
2023-07-05T19:39:58.586Z,1.40
2023-07-05T19:42:26.208Z,0.90
2023-07-05T19:44:54.029Z,1.40
2023-07-05T19:47:21.370Z,2.05
2023-07-05T19:49:48.815Z,1.42
2023-07-05T19:52:16.884Z,1.10
2023-07-05T19:54:44.287Z,1.30
2023-07-05T19:57:11.753Z,1.17
2023-07-05T19:59:39.143Z,1.38
2023-07-05T20:02:07.558Z,1.60
2023-07-05T20:04:35.415Z,1.40
2023-07-05T20:07:03.600Z,1.70
2023-07-05T20:09:30.927Z,1.52
2023-07-05T20:11:58.365Z,1.63
2023-07-05T20:14:26.003Z,1.25
2023-07-05T20:16:53.711Z,1.90
2023-07-05T20:19:21.666Z,1.80
2023-07-05T20:21:49.153Z,2.33
2023-07-05T20:24:16.652Z,2.10
2023-07-05T20:26:44.165Z,1.83
2023-07-05T20:29:11.630Z,1.80
2023-07-05T20:31:39.077Z,2.33
2023-07-05T20:34:07.398Z,1.95
2023-07-05T20:36:36.826Z,2.20
2023-07-05T20:39:04.582Z,1.70
2023-07-05T20:41:32.756Z,1.90
2023-07-05T20:44:00.241Z,3.00
2023-07-05T20:46:30.235Z,2.53
2023-07-05T20:48:58.777Z,2.03
2023-07-05T20:51:27.609Z,2.67
2023-07-05T20:53:55.038Z,1.92
2023-07-05T20:56:22.532Z,1.60
2023-07-05T20:58:50.191Z,2.03
2023-07-05T21:01:21.393Z,1.92
2023-07-05T21:03:56.909Z,1.80
2023-07-05T21:06:24.836Z,1.83
2023-07-05T21:08:52.464Z,1.98
2023-07-05T21:11:20.053Z,1.80
2023-07-05T21:13:49.799Z,2.03
2023-07-05T21:16:17.722Z,1.90
2023-07-05T21:18:45.355Z,1.85
2023-07-05T21:21:12.903Z,2.30
2023-07-05T21:23:40.589Z,1.83
2023-07-05T21:26:09.308Z,1.85
2023-07-05T21:28:36.921Z,1.60
2023-07-05T21:31:08.816Z,2.35
2023-07-05T21:33:36.846Z,1.98
2023-07-05T21:36:04.398Z,1.88
2023-07-05T21:43:48.563Z,1.92
2023-07-05T21:46:16.721Z,1.92
2023-07-05T21:48:44.126Z,2.00
2023-07-05T21:51:12.531Z,2.38
2023-07-05T21:53:41.088Z,2.08
2023-07-05T21:56:12.076Z,1.50
2023-07-05T21:58:39.709Z,1.73
2023-07-05T22:01:07.067Z,1.45
2023-07-05T22:03:37.479Z,2.03
2023-07-05T22:06:05.891Z,1.70
2023-07-05T22:08:33.767Z,1.60
2023-07-05T22:11:01.112Z,1.88
2023-07-05T22:13:30.316Z,2.72
2023-07-05T22:15:58.146Z,2.13
2023-07-05T22:18:26.078Z,1.90
2023-07-05T22:20:53.512Z,1.80
2023-07-05T22:23:22.313Z,1.67
2023-07-05T22:25:49.682Z,1.98
2023-07-05T22:28:19.980Z,1.50
2023-07-05T22:30:48.603Z,1.83
2023-07-05T22:33:17.075Z,1.70
2023-07-05T22:35:46.164Z,1.48
2023-07-05T22:38:13.766Z,1.45
2023-07-05T22:40:41.089Z,1.80
2023-07-05T22:43:14.770Z,2.45
2023-07-05T22:45:42.531Z,1.30
2023-07-05T22:48:38.551Z,1.40
2023-07-05T22:51:06.892Z,1.88
2023-07-05T22:53:36.179Z,1.65
2023-07-05T22:56:04.150Z,1.60
2023-07-05T22:58:31.844Z,1.60
2023-07-05T23:01:05.914Z,3.15
2023-07-05T23:03:35.450Z,2.30
2023-07-05T23:06:06.113Z,1.65
2023-07-05T23:08:34.299Z,1.80
2023-07-05T23:11:08.607Z,2.90
2023-07-05T23:13:37.132Z,1.40
2023-07-05T23:16:05.864Z,2.10
2023-07-05T23:18:46.414Z,1.80
2023-07-05T23:21:19.239Z,1.60
2023-07-05T23:23:51.446Z,1.85
2023-07-05T23:26:19.777Z,1.98
2023-07-05T23:28:48.051Z,2.13
2023-07-05T23:31:21.343Z,1.88
2023-07-05T23:33:48.869Z,4.60
2023-07-05T23:36:17.906Z,2.00
2023-07-05T23:38:46.020Z,3.50
2023-07-05T23:41:13.411Z,1.90
2023-07-05T23:43:42.951Z,2.75
2023-07-05T23:46:11.218Z,1.65
2023-07-05T23:48:41.518Z,1.90
2023-07-05T23:51:09.865Z,1.88
2023-07-05T23:53:37.567Z,1.85
2023-07-05T23:56:08.992Z,1.85
2023-07-05T23:58:36.538Z,3.03
